Kezdőlap
METAR-TAF:

METAR-TAF

Repülőterek :

Port of Spain, Trinidad, Trinidad és Tobago

földrajzi szélesség: 10-37N, földrajzi hosszúság: 061-21W, magasság: 12 m

Jelenlegi meteorológiai megfigyelések

A jelentés 34 perccel ezelõtt készült, 04:00 UTC
Szélcsend
Hőmérséklet 27°C
Páratartalom 79%
Légköri nyomás 1013 hPa
Látótávolság 10 km, vagy több
Kevés felhő 1600 lábon

METAR: TTPP 130400Z 00000KT 9999 FEW016 27/23 Q1013 NOSIG

Idő: 00:34 (04:34 UTC)

Előrejelzés

A jelentés 6 órával és 34 perccel ezelõtt készült, 22:00 UTC
Az előrejelzés 13-én 00 óra UTC és 13-én 24 óra UTC között érvényes
Keleti szél 5 kt
Látótávolság 10 km, vagy több
Kevés felhő 1800 lábon
13-én 12 óra UTC és 13-én 14 óra UTC között fokozatosan kialakuló
Kelet-délkeleti szél 15 kt széllökések: 25 kt
Szórványos felhőzet 2500 lábon

TAF: TTPP 122200Z 1300/1324 09005KT 9999 FEW018 BECMG 1312/1314 11015G25KT SCT025

Meteorológiai megfigyelések és előrejelzések több, mint 4000 repülőtéren (METAR és TAF jelentéseket).

A térképen piros és sárga pontok jelzik az elérhető meteorológiai állomásokat.

Mozgassa az egeret a pont fölött, hogy megjelenjen az állomás neve.

Azután kattintson az időjárási megfigyelések és előrejelzések megtekintéséhez.

A térkép megváltoztatása: kattintson a fekete keresztel jelölt zöld gombra ráközelítéshez, a vonallal jelölt zöld gombra távolításhoz, vagy a zöld nyilakra a szomszédos térképek eléréséhez.


METAR-TAF: